Llano, TX

4:11 PM CDT on September 24, 2016 (GMT -0500)
LCRA | | Change Station

Elev 981 ft 30.75 °N, 98.67 °W | Updated 31 minutes ago

Partly Cloudy
Partly Cloudy
94.0 °F
Feels Like 94.0 °F
N
0.0
Wind Variable Wind from North
Gusts 0.0 mph

Today
High -- | Low -- °F
--% Chance of Precip.
Yesterday
High -- | Low -- °F
Precip. -- in
Pressure 29.93 in
Visibility 10.0 miles
Clouds Few 8000 ft
Dew Point 64.0 °F
Humidity 38%
Rainfall in
Snow Depth Not available.
7:24 AM 7:28 PM
Waning Crescent, 34% visible
METAR KAQO 242050Z AUTO 17009KT 10SM FEW080 34/20 A2993 RMK AO2
Pressure 29.93 in
Visibility 10.0 miles
Clouds Few 8000 ft
Dew Point 64.0 °F
Humidity 38%
Rainfall in
Snow Depth Not available.
7:24 AM 7:28 PM
Waning Crescent, 34% visible
METAR KAQO 242050Z AUTO 17009KT 10SM FEW080 34/20 A2993 RMK AO2

10-Day Weather Forecast

Almanac

Astronomy

Sep. 24, 2016 Rise Set
Actual Time
Civil Twilight
Nautical Twilight
Astronomical Twilight
Moon
Length of Visible Light
Length of Day
Tomorrow will be .
, % of the Moon is Illuminated

Today's Extremes

State Highs State Lows

Community

WunderPhotos

Upload Photos

1,941,431 photos uploaded!

WunderBlog® & News

Nearby

Air Quality

  Air Quality AQ Index Pollutant
Not available.

Snow Depth

Station Depth Elevation

Earthquake Activity

City Distance Mag. Time & Date
Minimum magnitude displayed is 2.5.

Coastal Water Temperatures

Place Temperature

Stations

Nearby Weather Stations

Station Location Temp. Windchill Dew Point Humidity Wind Precip. Elev Updated Type
                   

Watches & Warnings

There are currently no watches in effect.